sensor_id;sensor_type;location;lat;lon;timestamp;pressure;altitude;pressure_sealevel;temperature;humidity
55466;BME280;41329;41.594;23.810;2022-12-18T00:01:35;95827.69;;;12.56;81.87
55466;BME280;41329;41.594;23.810;2022-12-18T00:04:05;95810.09;;;12.48;82.23
55466;BME280;41329;41.594;23.810;2022-12-18T00:06:32;95766.53;;;12.26;82.29
55466;BME280;41329;41.594;23.810;2022-12-18T00:08:58;95804.06;;;12.43;82.43
55466;BME280;41329;41.594;23.810;2022-12-18T00:11:28;95826.50;;;12.57;82.76
55466;BME280;41329;41.594;23.810;2022-12-18T00:13:55;95835.69;;;12.61;82.67
55466;BME280;41329;41.594;23.810;2022-12-18T00:16:22;95846.03;;;12.64;82.35
55466;BME280;41329;41.594;23.810;2022-12-18T00:18:51;95839.16;;;12.55;82.22
55466;BME280;41329;41.594;23.810;2022-12-18T00:21:17;95858.75;;;12.65;81.99
55466;BME280;41329;41.594;23.810;2022-12-18T00:23:44;95868.31;;;12.68;81.70
55466;BME280;41329;41.594;23.810;2022-12-18T00:26:18;95842.78;;;12.59;81.19
55466;BME280;41329;41.594;23.810;2022-12-18T00:28:45;95844.81;;;12.62;81.15
55466;BME280;41329;41.594;23.810;2022-12-18T00:31:13;95845.56;;;12.59;81.02
55466;BME280;41329;41.594;23.810;2022-12-18T00:33:40;95851.03;;;12.55;81.05
55466;BME280;41329;41.594;23.810;2022-12-18T00:36:09;95850.31;;;12.58;80.86
55466;BME280;41329;41.594;23.810;2022-12-18T00:38:35;95850.94;;;12.48;81.18
55466;BME280;41329;41.594;23.810;2022-12-18T00:41:01;95842.44;;;12.38;81.61
55466;BME280;41329;41.594;23.810;2022-12-18T00:43:26;95857.22;;;12.45;81.74
55466;BME280;41329;41.594;23.810;2022-12-18T00:45:52;95816.16;;;12.09;81.89
55466;BME280;41329;41.594;23.810;2022-12-18T00:48:18;95872.88;;;12.34;81.95
55466;BME280;41329;41.594;23.810;2022-12-18T00:50:43;95854.72;;;12.14;82.14
55466;BME280;41329;41.594;23.810;2022-12-18T00:53:12;95815.56;;;11.96;82.41
55466;BME280;41329;41.594;23.810;2022-12-18T00:55:39;95855.94;;;12.16;82.64
55466;BME280;41329;41.594;23.810;2022-12-18T00:58:04;95862.03;;;12.25;82.66
55466;BME280;41329;41.594;23.810;2022-12-18T01:00:30;95857.91;;;12.16;82.68
55466;BME280;41329;41.594;23.810;2022-12-18T01:02:55;95865.25;;;12.27;82.58
55466;BME280;41329;41.594;23.810;2022-12-18T01:05:21;95859.78;;;12.31;82.47
55466;BME280;41329;41.594;23.810;2022-12-18T01:07:46;95864.94;;;12.32;82.22
55466;BME280;41329;41.594;23.810;2022-12-18T01:10:12;95838.25;;;12.24;82.25
55466;BME280;41329;41.594;23.810;2022-12-18T01:12:38;95847.41;;;12.28;82.15
55466;BME280;41329;41.594;23.810;2022-12-18T01:15:06;95839.91;;;12.29;81.73
55466;BME280;41329;41.594;23.810;2022-12-18T01:17:32;95853.53;;;12.38;81.45
55466;BME280;41329;41.594;23.810;2022-12-18T01:19:57;95851.63;;;12.42;81.04
55466;BME280;41329;41.594;23.810;2022-12-18T01:22:23;95845.50;;;12.32;80.32
55466;BME280;41329;41.594;23.810;2022-12-18T01:24:48;95845.75;;;12.24;80.01
55466;BME280;41329;41.594;23.810;2022-12-18T01:27:14;95868.88;;;12.31;79.96
55466;BME280;41329;41.594;23.810;2022-12-18T01:29:40;95867.97;;;12.24;80.45
55466;BME280;41329;41.594;23.810;2022-12-18T01:32:05;95866.72;;;12.21;80.90
55466;BME280;41329;41.594;23.810;2022-12-18T01:34:31;95865.59;;;12.26;80.91
55466;BME280;41329;41.594;23.810;2022-12-18T01:36:56;95876.69;;;12.26;80.61
55466;BME280;41329;41.594;23.810;2022-12-18T01:39:22;95869.56;;;12.25;80.54
55466;BME280;41329;41.594;23.810;2022-12-18T01:41:47;95858.41;;;12.21;80.71
55466;BME280;41329;41.594;23.810;2022-12-18T01:47:32;95872.59;;;12.16;81.69
55466;BME280;41329;41.594;23.810;2022-12-18T01:50:02;95865.50;;;12.19;81.81
55466;BME280;41329;41.594;23.810;2022-12-18T01:52:29;95859.88;;;12.15;81.89
55466;BME280;41329;41.594;23.810;2022-12-18T01:54:56;95856.63;;;12.10;82.42
55466;BME280;41329;41.594;23.810;2022-12-18T01:57:23;95856.31;;;12.15;82.91
55466;BME280;41329;41.594;23.810;2022-12-18T01:59:52;95857.59;;;12.21;82.93
55466;BME280;41329;41.594;23.810;2022-12-18T02:02:20;95859.63;;;12.24;82.73
55466;BME280;41329;41.594;23.810;2022-12-18T02:04:46;95860.06;;;12.26;82.51
55466;BME280;41329;41.594;23.810;2022-12-18T02:07:21;95866.09;;;12.31;82.31
55466;BME280;41329;41.594;23.810;2022-12-18T02:10:02;95861.38;;;12.32;81.76
55466;BME280;41329;41.594;23.810;2022-12-18T02:15:22;95852.41;;;12.19;81.42
55466;BME280;41329;41.594;23.810;2022-12-18T02:18:12;95866.06;;;12.28;81.24
55466;BME280;41329;41.594;23.810;2022-12-18T02:28:43;95868.31;;;12.22;81.99
55466;BME280;41329;41.594;23.810;2022-12-18T02:31:14;95876.28;;;12.24;81.59
55466;BME280;41329;41.594;23.810;2022-12-18T02:33:43;95882.25;;;12.26;81.36
55466;BME280;41329;41.594;23.810;2022-12-18T02:36:10;95877.88;;;12.25;81.44
55466;BME280;41329;41.594;23.810;2022-12-18T02:38:38;95874.31;;;12.24;81.32
55466;BME280;41329;41.594;23.810;2022-12-18T02:41:05;95889.69;;;12.22;81.50
55466;BME280;41329;41.594;23.810;2022-12-18T02:43:31;95891.88;;;12.09;81.04
55466;BME280;41329;41.594;23.810;2022-12-18T02:45:59;95885.81;;;12.04;81.02
55466;BME280;41329;41.594;23.810;2022-12-18T02:48:33;95900.34;;;11.97;81.17
55466;BME280;41329;41.594;23.810;2022-12-18T02:51:21;95872.78;;;11.85;81.21
55466;BME280;41329;41.594;23.810;2022-12-18T02:53:53;95900.72;;;11.96;81.29
55466;BME280;41329;41.594;23.810;2022-12-18T02:56:54;95904.34;;;12.00;81.31
55466;BME280;41329;41.594;23.810;2022-12-18T02:59:34;95903.56;;;11.99;81.23
55466;BME280;41329;41.594;23.810;2022-12-18T03:02:14;95901.88;;;11.95;81.05
55466;BME280;41329;41.594;23.810;2022-12-18T03:04:51;95907.44;;;11.95;80.81
55466;BME280;41329;41.594;23.810;2022-12-18T03:07:23;95901.06;;;11.94;80.75
55466;BME280;41329;41.594;23.810;2022-12-18T03:09:52;95902.69;;;11.95;80.78
55466;BME280;41329;41.594;23.810;2022-12-18T03:12:24;95897.16;;;11.95;80.81
55466;BME280;41329;41.594;23.810;2022-12-18T03:17:33;95894.66;;;11.90;81.07
55466;BME280;41329;41.594;23.810;2022-12-18T03:20:10;95901.88;;;11.95;81.04
55466;BME280;41329;41.594;23.810;2022-12-18T03:22:38;95904.16;;;11.89;80.70
55466;BME280;41329;41.594;23.810;2022-12-18T03:25:06;95901.31;;;11.86;79.90
55466;BME280;41329;41.594;23.810;2022-12-18T03:27:37;95909.63;;;11.86;79.67
55466;BME280;41329;41.594;23.810;2022-12-18T03:30:06;95906.78;;;11.82;79.68
55466;BME280;41329;41.594;23.810;2022-12-18T03:32:39;95891.44;;;11.69;79.40
55466;BME280;41329;41.594;23.810;2022-12-18T03:35:08;95910.66;;;11.78;79.36
55466;BME280;41329;41.594;23.810;2022-12-18T03:37:35;95911.38;;;11.75;79.40
55466;BME280;41329;41.594;23.810;2022-12-18T03:40:02;95912.91;;;11.72;79.69
55466;BME280;41329;41.594;23.810;2022-12-18T03:45:35;95914.81;;;11.68;79.78
55466;BME280;41329;41.594;23.810;2022-12-18T03:48:29;95911.09;;;11.61;79.67
55466;BME280;41329;41.594;23.810;2022-12-18T03:51:05;95920.66;;;11.63;79.47
55466;BME280;41329;41.594;23.810;2022-12-18T03:53:47;95928.53;;;11.61;79.47
55466;BME280;41329;41.594;23.810;2022-12-18T03:56:15;95932.00;;;11.58;79.19
55466;BME280;41329;41.594;23.810;2022-12-18T03:58:43;95920.31;;;11.49;78.77
55466;BME280;41329;41.594;23.810;2022-12-18T04:01:12;95927.28;;;11.43;78.29
55466;BME280;41329;41.594;23.810;2022-12-18T04:03:40;95938.38;;;11.43;78.02
55466;BME280;41329;41.594;23.810;2022-12-18T04:06:07;95944.94;;;11.35;78.95
55466;BME280;41329;41.594;23.810;2022-12-18T04:08:34;95942.50;;;11.34;78.73
55466;BME280;41329;41.594;23.810;2022-12-18T04:11:01;95924.41;;;11.21;78.53
55466;BME280;41329;41.594;23.810;2022-12-18T04:13:37;95943.63;;;11.29;78.53
55466;BME280;41329;41.594;23.810;2022-12-18T04:16:03;95942.56;;;11.18;78.57
55466;BME280;41329;41.594;23.810;2022-12-18T04:18:29;95935.72;;;11.12;78.40
55466;BME280;41329;41.594;23.810;2022-12-18T04:20:55;95939.53;;;11.08;78.34
55466;BME280;41329;41.594;23.810;2022-12-18T04:23:20;95947.84;;;11.08;78.64
55466;BME280;41329;41.594;23.810;2022-12-18T04:25:46;95942.53;;;10.99;78.29
55466;BME280;41329;41.594;23.810;2022-12-18T04:28:12;95946.81;;;10.97;78.31
55466;BME280;41329;41.594;23.810;2022-12-18T04:30:38;95949.59;;;10.97;78.74
55466;BME280;41329;41.594;23.810;2022-12-18T04:33:03;95947.88;;;10.92;78.67
55466;BME280;41329;41.594;23.810;2022-12-18T04:35:29;95951.88;;;10.95;78.72
55466;BME280;41329;41.594;23.810;2022-12-18T04:37:55;95952.59;;;10.92;78.90
55466;BME280;41329;41.594;23.810;2022-12-18T04:40:20;95947.69;;;10.85;79.04
55466;BME280;41329;41.594;23.810;2022-12-18T04:42:46;95945.66;;;10.82;78.96
55466;BME280;41329;41.594;23.810;2022-12-18T04:45:12;95964.75;;;10.87;78.59
55466;BME280;41329;41.594;23.810;2022-12-18T04:47:37;95967.06;;;10.85;78.39
55466;BME280;41329;41.594;23.810;2022-12-18T04:50:03;95954.13;;;10.74;79.12
55466;BME280;41329;41.594;23.810;2022-12-18T04:52:31;95986.38;;;10.82;79.09
55466;BME280;41329;41.594;23.810;2022-12-18T04:54:57;95969.84;;;10.70;78.82
55466;BME280;41329;41.594;23.810;2022-12-18T04:57:22;95970.38;;;10.75;78.85
55466;BME280;41329;41.594;23.810;2022-12-18T04:59:48;95972.25;;;10.71;78.77
55466;BME280;41329;41.594;23.810;2022-12-18T05:02:13;95986.91;;;10.72;78.28
55466;BME280;41329;41.594;23.810;2022-12-18T05:04:39;95989.75;;;10.75;78.22
55466;BME280;41329;41.594;23.810;2022-12-18T05:07:04;95968.53;;;10.64;78.65
55466;BME280;41329;41.594;23.810;2022-12-18T05:09:29;95985.28;;;10.71;79.74
55466;BME280;41329;41.594;23.810;2022-12-18T05:11:55;95971.09;;;10.57;79.88
55466;BME280;41329;41.594;23.810;2022-12-18T05:14:20;95998.41;;;10.74;79.95
55466;BME280;41329;41.594;23.810;2022-12-18T05:16:46;96008.31;;;10.75;80.15
55466;BME280;41329;41.594;23.810;2022-12-18T05:19:11;95991.00;;;10.62;80.01
55466;BME280;41329;41.594;23.810;2022-12-18T05:21:37;96020.69;;;10.77;80.09
55466;BME280;41329;41.594;23.810;2022-12-18T05:24:02;96017.16;;;10.80;79.77
55466;BME280;41329;41.594;23.810;2022-12-18T05:26:28;96004.56;;;10.67;79.57
55466;BME280;41329;41.594;23.810;2022-12-18T05:28:53;96021.38;;;10.74;79.43
55466;BME280;41329;41.594;23.810;2022-12-18T05:31:19;96027.25;;;10.73;79.54
55466;BME280;41329;41.594;23.810;2022-12-18T05:33:44;96025.66;;;10.72;79.91
55466;BME280;41329;41.594;23.810;2022-12-18T05:36:10;96031.19;;;10.72;79.96
55466;BME280;41329;41.594;23.810;2022-12-18T05:38:38;96020.41;;;10.67;80.18
55466;BME280;41329;41.594;23.810;2022-12-18T05:41:04;96010.66;;;10.57;80.31
55466;BME280;41329;41.594;23.810;2022-12-18T05:43:31;96022.63;;;10.61;79.68
55466;BME280;41329;41.594;23.810;2022-12-18T05:45:56;96017.78;;;10.58;79.47
55466;BME280;41329;41.594;23.810;2022-12-18T05:48:22;96041.38;;;10.68;79.24
55466;BME280;41329;41.594;23.810;2022-12-18T05:50:49;96051.72;;;10.71;79.26
55466;BME280;41329;41.594;23.810;2022-12-18T05:53:17;96048.50;;;10.69;79.44
55466;BME280;41329;41.594;23.810;2022-12-18T05:55:43;96054.84;;;10.69;79.71
55466;BME280;41329;41.594;23.810;2022-12-18T05:58:09;96043.94;;;10.61;79.89
55466;BME280;41329;41.594;23.810;2022-12-18T06:00:38;96056.72;;;10.65;80.11
55466;BME280;41329;41.594;23.810;2022-12-18T06:03:10;96062.44;;;10.72;79.82
55466;BME280;41329;41.594;23.810;2022-12-18T06:05:43;96063.59;;;10.71;79.74
55466;BME280;41329;41.594;23.810;2022-12-18T06:08:09;96051.44;;;10.60;79.71
55466;BME280;41329;41.594;23.810;2022-12-18T06:10:35;96070.72;;;10.72;79.98
55466;BME280;41329;41.594;23.810;2022-12-18T06:13:01;96073.50;;;10.72;80.05
55466;BME280;41329;41.594;23.810;2022-12-18T06:15:27;96075.56;;;10.75;80.08
55466;BME280;41329;41.594;23.810;2022-12-18T06:17:52;96078.00;;;10.77;80.02
55466;BME280;41329;41.594;23.810;2022-12-18T06:20:18;96075.91;;;10.74;80.25
55466;BME280;41329;41.594;23.810;2022-12-18T06:22:47;96081.19;;;10.79;80.33
55466;BME280;41329;41.594;23.810;2022-12-18T06:25:13;96078.53;;;10.82;80.99
55466;BME280;41329;41.594;23.810;2022-12-18T06:27:38;96082.63;;;10.88;81.16
55466;BME280;41329;41.594;23.810;2022-12-18T06:30:04;96057.72;;;10.73;81.28
55466;BME280;41329;41.594;23.810;2022-12-18T06:32:30;96082.28;;;10.90;81.41
55466;BME280;41329;41.594;23.810;2022-12-18T06:34:55;96078.72;;;10.89;82.12
55466;BME280;41329;41.594;23.810;2022-12-18T06:37:22;96096.16;;;11.05;82.61
55466;BME280;41329;41.594;23.810;2022-12-18T06:39:51;96109.84;;;11.14;83.47
55466;BME280;41329;41.594;23.810;2022-12-18T06:42:17;96112.75;;;11.21;84.29
55466;BME280;41329;41.594;23.810;2022-12-18T06:44:42;96107.78;;;11.26;84.48
55466;BME280;41329;41.594;23.810;2022-12-18T06:47:08;96130.31;;;11.40;85.22
55466;BME280;41329;41.594;23.810;2022-12-18T06:49:33;96124.84;;;11.44;83.75
55466;BME280;41329;41.594;23.810;2022-12-18T06:51:58;96131.09;;;11.41;82.54
55466;BME280;41329;41.594;23.810;2022-12-18T06:54:24;96135.84;;;11.40;81.65
55466;BME280;41329;41.594;23.810;2022-12-18T06:56:49;96145.41;;;11.43;81.22
55466;BME280;41329;41.594;23.810;2022-12-18T06:59:15;96116.63;;;11.32;81.11
55466;BME280;41329;41.594;23.810;2022-12-18T07:01:40;96129.84;;;11.23;80.99
55466;BME280;41329;41.594;23.810;2022-12-18T07:04:06;96148.34;;;11.19;81.01
55466;BME280;41329;41.594;23.810;2022-12-18T07:06:32;96119.91;;;11.06;80.47
55466;BME280;41329;41.594;23.810;2022-12-18T07:08:57;96137.25;;;11.19;80.16
55466;BME280;41329;41.594;23.810;2022-12-18T07:11:23;96143.91;;;11.30;80.51
55466;BME280;41329;41.594;23.810;2022-12-18T07:13:49;96127.78;;;11.20;80.77
55466;BME280;41329;41.594;23.810;2022-12-18T07:16:17;96145.22;;;11.36;81.25
55466;BME280;41329;41.594;23.810;2022-12-18T07:18:43;96142.53;;;11.39;81.96
55466;BME280;41329;41.594;23.810;2022-12-18T07:21:14;96153.47;;;11.48;82.13
55466;BME280;41329;41.594;23.810;2022-12-18T07:23:40;96142.91;;;11.53;82.54
55466;BME280;41329;41.594;23.810;2022-12-18T07:26:08;96138.63;;;11.56;82.61
55466;BME280;41329;41.594;23.810;2022-12-18T07:28:34;96127.06;;;11.54;82.32
55466;BME280;41329;41.594;23.810;2022-12-18T07:31:05;96147.66;;;11.68;82.29
55466;BME280;41329;41.594;23.810;2022-12-18T07:33:31;96149.00;;;11.74;82.57
55466;BME280;41329;41.594;23.810;2022-12-18T07:35:58;96129.78;;;11.66;82.71
55466;BME280;41329;41.594;23.810;2022-12-18T07:38:24;96116.19;;;11.61;83.09
55466;BME280;41329;41.594;23.810;2022-12-18T07:40:49;96143.63;;;11.81;83.30
55466;BME280;41329;41.594;23.810;2022-12-18T07:43:15;96149.13;;;11.97;83.52
55466;BME280;41329;41.594;23.810;2022-12-18T07:45:41;96140.75;;;11.93;83.43
55466;BME280;41329;41.594;23.810;2022-12-18T07:48:07;96150.66;;;12.10;83.15
55466;BME280;41329;41.594;23.810;2022-12-18T07:50:32;96153.44;;;12.10;82.78
55466;BME280;41329;41.594;23.810;2022-12-18T07:52:57;96162.53;;;12.10;82.53
55466;BME280;41329;41.594;23.810;2022-12-18T07:55:23;96162.34;;;12.19;83.26
55466;BME280;41329;41.594;23.810;2022-12-18T07:57:49;96164.53;;;12.29;83.29
55466;BME280;41329;41.594;23.810;2022-12-18T08:00:14;96169.81;;;12.34;83.34
55466;BME280;41329;41.594;23.810;2022-12-18T08:02:40;96169.97;;;12.41;83.40
55466;BME280;41329;41.594;23.810;2022-12-18T08:05:05;96170.94;;;12.48;82.80
55466;BME280;41329;41.594;23.810;2022-12-18T08:07:31;96164.66;;;12.52;82.60
55466;BME280;41329;41.594;23.810;2022-12-18T08:09:56;96126.16;;;12.31;82.01
55466;BME280;41329;41.594;23.810;2022-12-18T08:12:21;96170.38;;;12.59;81.41
55466;BME280;41329;41.594;23.810;2022-12-18T08:14:47;96174.03;;;12.63;81.24
55466;BME280;41329;41.594;23.810;2022-12-18T08:17:12;96170.13;;;12.67;81.27
55466;BME280;41329;41.594;23.810;2022-12-18T08:19:38;96166.28;;;12.72;81.68
55466;BME280;41329;41.594;23.810;2022-12-18T08:22:03;96169.94;;;12.76;81.65
55466;BME280;41329;41.594;23.810;2022-12-18T08:24:28;96176.44;;;12.83;81.17
55466;BME280;41329;41.594;23.810;2022-12-18T08:26:54;96152.53;;;12.79;81.28
55466;BME280;41329;41.594;23.810;2022-12-18T08:29:19;96173.94;;;12.78;81.69
55466;BME280;41329;41.594;23.810;2022-12-18T08:31:45;96160.28;;;12.70;80.92
55466;BME280;41329;41.594;23.810;2022-12-18T08:34:11;96129.97;;;12.61;82.17
55466;BME280;41329;41.594;23.810;2022-12-18T08:36:36;96184.91;;;12.90;81.84
55466;BME280;41329;41.594;23.810;2022-12-18T08:39:02;96183.00;;;12.75;80.89
55466;BME280;41329;41.594;23.810;2022-12-18T08:41:27;96177.09;;;12.77;81.61
55466;BME280;41329;41.594;23.810;2022-12-18T08:43:53;96181.09;;;12.79;81.63
55466;BME280;41329;41.594;23.810;2022-12-18T08:46:38;96188.34;;;12.84;82.83
55466;BME280;41329;41.594;23.810;2022-12-18T08:49:05;96193.44;;;12.82;82.03
55466;BME280;41329;41.594;23.810;2022-12-18T08:51:32;96193.81;;;12.80;80.57
55466;BME280;41329;41.594;23.810;2022-12-18T08:53:58;96192.41;;;12.71;80.29
55466;BME280;41329;41.594;23.810;2022-12-18T08:56:24;96186.78;;;12.67;80.79
55466;BME280;41329;41.594;23.810;2022-12-18T08:58:54;96185.34;;;12.73;80.35
55466;BME280;41329;41.594;23.810;2022-12-18T09:01:20;96189.00;;;12.77;80.99
55466;BME280;41329;41.594;23.810;2022-12-18T09:03:47;96191.41;;;12.79;80.88
55466;BME280;41329;41.594;23.810;2022-12-18T09:06:17;96191.25;;;12.91;81.00
55466;BME280;41329;41.594;23.810;2022-12-18T09:08:43;96194.34;;;12.86;81.40
55466;BME280;41329;41.594;23.810;2022-12-18T09:11:21;96185.28;;;12.89;83.02
55466;BME280;41329;41.594;23.810;2022-12-18T09:13:47;96185.41;;;12.96;81.61
55466;BME280;41329;41.594;23.810;2022-12-18T09:16:12;96168.13;;;13.02;80.30
55466;BME280;41329;41.594;23.810;2022-12-18T09:18:38;96178.78;;;13.19;80.38
55466;BME280;41329;41.594;23.810;2022-12-18T09:21:12;96185.63;;;13.25;80.40
55466;BME280;41329;41.594;23.810;2022-12-18T09:23:38;96167.00;;;13.26;80.90
55466;BME280;41329;41.594;23.810;2022-12-18T09:26:03;96184.94;;;13.51;79.98
55466;BME280;41329;41.594;23.810;2022-12-18T09:28:29;96168.69;;;13.53;79.30
55466;BME280;41329;41.594;23.810;2022-12-18T09:30:54;96175.34;;;13.71;79.32
55466;BME280;41329;41.594;23.810;2022-12-18T09:33:20;96186.38;;;13.86;78.78
55466;BME280;41329;41.594;23.810;2022-12-18T09:35:45;96171.78;;;13.93;78.97
55466;BME280;41329;41.594;23.810;2022-12-18T09:38:14;96192.38;;;14.14;77.87
55466;BME280;41329;41.594;23.810;2022-12-18T09:40:46;96188.22;;;14.05;75.52
55466;BME280;41329;41.594;23.810;2022-12-18T09:43:20;96181.75;;;13.97;75.24
55466;BME280;41329;41.594;23.810;2022-12-18T09:45:53;96184.34;;;14.09;75.34
55466;BME280;41329;41.594;23.810;2022-12-18T09:48:25;96179.59;;;14.10;75.64
55466;BME280;41329;41.594;23.810;2022-12-18T09:50:55;96158.06;;;14.07;74.41
55466;BME280;41329;41.594;23.810;2022-12-18T09:53:26;96177.09;;;14.27;74.26
55466;BME280;41329;41.594;23.810;2022-12-18T09:55:54;96176.69;;;14.25;74.60
55466;BME280;41329;41.594;23.810;2022-12-18T09:58:28;96173.16;;;14.28;73.68
55466;BME280;41329;41.594;23.810;2022-12-18T10:00:56;96161.56;;;14.26;74.16
55466;BME280;41329;41.594;23.810;2022-12-18T10:03:21;96183.31;;;14.43;72.86
55466;BME280;41329;41.594;23.810;2022-12-18T10:14:18;96161.19;;;14.54;72.86
55466;BME280;41329;41.594;23.810;2022-12-18T10:19:49;96160.91;;;14.62;72.29
55466;BME280;41329;41.594;23.810;2022-12-18T10:27:32;96158.31;;;14.76;71.57
55466;BME280;41329;41.594;23.810;2022-12-18T10:29:58;96095.06;;;14.47;72.09
55466;BME280;41329;41.594;23.810;2022-12-18T10:32:26;96154.44;;;14.84;71.61
55466;BME280;41329;41.594;23.810;2022-12-18T10:34:55;96152.50;;;14.88;71.51
55466;BME280;41329;41.594;23.810;2022-12-18T10:37:26;96153.28;;;14.89;71.28
55466;BME280;41329;41.594;23.810;2022-12-18T10:40:11;96146.53;;;14.90;70.70
55466;BME280;41329;41.594;23.810;2022-12-18T10:42:37;96138.84;;;14.80;70.69
55466;BME280;41329;41.594;23.810;2022-12-18T10:45:15;96127.63;;;14.73;70.53
55466;BME280;41329;41.594;23.810;2022-12-18T10:47:50;96150.28;;;14.71;69.88
55466;BME280;41329;41.594;23.810;2022-12-18T10:50:28;96147.78;;;14.63;70.07
55466;BME280;41329;41.594;23.810;2022-12-18T10:52:56;96146.13;;;14.58;69.58
55466;BME280;41329;41.594;23.810;2022-12-18T10:55:22;96138.09;;;14.53;69.80
55466;BME280;41329;41.594;23.810;2022-12-18T10:57:47;96140.88;;;14.53;69.85
55466;BME280;41329;41.594;23.810;2022-12-18T11:02:47;96147.63;;;14.52;70.91
55466;BME280;41329;41.594;23.810;2022-12-18T11:05:33;96144.22;;;14.66;71.62
55466;BME280;41329;41.594;23.810;2022-12-18T11:08:00;96136.81;;;14.77;70.98
55466;BME280;41329;41.594;23.810;2022-12-18T11:10:37;96142.53;;;14.87;72.13
55466;BME280;41329;41.594;23.810;2022-12-18T11:13:23;96135.91;;;14.99;72.10
55466;BME280;41329;41.594;23.810;2022-12-18T11:15:50;96145.00;;;14.96;68.52
55466;BME280;41329;41.594;23.810;2022-12-18T11:18:35;96143.75;;;14.90;67.98
55466;BME280;41329;41.594;23.810;2022-12-18T11:21:09;96142.13;;;14.89;67.86
55466;BME280;41329;41.594;23.810;2022-12-18T11:23:37;96142.94;;;14.89;67.85
55466;BME280;41329;41.594;23.810;2022-12-18T11:26:09;96135.31;;;14.83;67.78
55466;BME280;41329;41.594;23.810;2022-12-18T11:28:47;96128.16;;;14.85;68.65
55466;BME280;41329;41.594;23.810;2022-12-18T11:31:43;96123.47;;;14.93;67.93
55466;BME280;41329;41.594;23.810;2022-12-18T11:36:46;96122.34;;;14.97;67.97
55466;BME280;41329;41.594;23.810;2022-12-18T11:39:36;96125.97;;;15.01;67.05
55466;BME280;41329;41.594;23.810;2022-12-18T11:42:20;96132.22;;;14.91;66.71
55466;BME280;41329;41.594;23.810;2022-12-18T11:50:00;96129.13;;;15.00;65.94
55466;BME280;41329;41.594;23.810;2022-12-18T11:52:36;96130.25;;;14.95;65.98
55466;BME280;41329;41.594;23.810;2022-12-18T11:55:14;96128.72;;;14.98;65.90
55466;BME280;41329;41.594;23.810;2022-12-18T11:58:05;96124.78;;;15.02;66.09
55466;BME280;41329;41.594;23.810;2022-12-18T12:00:40;96126.06;;;15.08;66.17
55466;BME280;41329;41.594;23.810;2022-12-18T12:17:39;96120.06;;;15.10;65.10
55466;BME280;41329;41.594;23.810;2022-12-18T12:38:27;96098.25;;;15.15;64.78
55466;BME280;41329;41.594;23.810;2022-12-18T12:41:01;96112.28;;;15.26;64.03
55466;BME280;41329;41.594;23.810;2022-12-18T12:43:35;96113.88;;;15.27;63.65
55466;BME280;41329;41.594;23.810;2022-12-18T12:46:10;96111.91;;;15.27;64.32
55466;BME280;41329;41.594;23.810;2022-12-18T12:48:52;96103.09;;;15.22;64.54
55466;BME280;41329;41.594;23.810;2022-12-18T12:53:47;96085.41;;;15.07;64.05
55466;BME280;41329;41.594;23.810;2022-12-18T12:56:15;96117.94;;;15.29;63.76
55466;BME280;41329;41.594;23.810;2022-12-18T13:10:23;96130.47;;;15.49;64.44
55466;BME280;41329;41.594;23.810;2022-12-18T13:12:56;96145.66;;;15.52;64.77
55466;BME280;41329;41.594;23.810;2022-12-18T13:15:48;96138.38;;;15.40;63.16
55466;BME280;41329;41.594;23.810;2022-12-18T13:18:22;96141.97;;;15.41;63.00
55466;BME280;41329;41.594;23.810;2022-12-18T13:25:49;96125.38;;;15.22;62.76
55466;BME280;41329;41.594;23.810;2022-12-18T13:28:16;96146.22;;;15.31;63.26
55466;BME280;41329;41.594;23.810;2022-12-18T13:30:48;96138.22;;;15.30;62.78
55466;BME280;41329;41.594;23.810;2022-12-18T13:41:01;96149.97;;;15.13;62.85
55466;BME280;41329;41.594;23.810;2022-12-18T13:43:30;96140.72;;;15.02;62.65
55466;BME280;41329;41.594;23.810;2022-12-18T13:46:26;96155.88;;;15.04;62.95
55466;BME280;41329;41.594;23.810;2022-12-18T13:49:04;96160.59;;;15.00;62.80
55466;BME280;41329;41.594;23.810;2022-12-18T13:51:33;96145.03;;;14.99;63.09
55466;BME280;41329;41.594;23.810;2022-12-18T13:54:35;96159.03;;;15.03;63.21
55466;BME280;41329;41.594;23.810;2022-12-18T13:56:59;96161.44;;;15.04;63.05
55466;BME280;41329;41.594;23.810;2022-12-18T13:59:47;96146.47;;;14.86;63.32
55466;BME280;41329;41.594;23.810;2022-12-18T14:04:37;96175.44;;;14.78;63.54
55466;BME280;41329;41.594;23.810;2022-12-18T14:07:12;96169.81;;;14.75;63.81
55466;BME280;41329;41.594;23.810;2022-12-18T14:09:43;96172.50;;;14.68;63.93
55466;BME280;41329;41.594;23.810;2022-12-18T14:12:31;96176.91;;;14.69;63.89
55466;BME280;41329;41.594;23.810;2022-12-18T14:17:55;96179.75;;;14.72;64.11
55466;BME280;41329;41.594;23.810;2022-12-18T14:20:22;96181.34;;;14.73;64.03
55466;BME280;41329;41.594;23.810;2022-12-18T14:22:50;96186.53;;;14.75;64.04
55466;BME280;41329;41.594;23.810;2022-12-18T14:28:18;96181.34;;;14.73;64.80
55466;BME280;41329;41.594;23.810;2022-12-18T14:30:45;96180.94;;;14.71;64.74
55466;BME280;41329;41.594;23.810;2022-12-18T14:33:11;96187.25;;;14.68;64.57
55466;BME280;41329;41.594;23.810;2022-12-18T14:35:42;96180.72;;;14.57;64.48
55466;BME280;41329;41.594;23.810;2022-12-18T14:38:20;96191.91;;;14.61;64.77
55466;BME280;41329;41.594;23.810;2022-12-18T14:40:51;96203.75;;;14.54;64.64
55466;BME280;41329;41.594;23.810;2022-12-18T14:43:20;96166.13;;;14.15;64.84
55466;BME280;41329;41.594;23.810;2022-12-18T14:45:45;96194.72;;;14.35;64.90
55466;BME280;41329;41.594;23.810;2022-12-18T14:50:37;96202.16;;;14.27;65.22
55466;BME280;41329;41.594;23.810;2022-12-18T14:53:03;96207.34;;;14.29;65.65
55466;BME280;41329;41.594;23.810;2022-12-18T14:55:29;96210.81;;;14.22;65.69
55466;BME280;41329;41.594;23.810;2022-12-18T14:57:55;96205.97;;;14.19;66.08